sensor_id;sensor_type;location;lat;lon;timestamp;P1;durP1;ratioP1;P2;durP2;ratioP2
75616;SDS011;64200;55.426;37.758;2023-01-29T00:03:12;36.43;;;11.83;;
75616;SDS011;64200;55.426;37.758;2023-01-29T00:08:13;35.07;;;12.63;;
75616;SDS011;64200;55.426;37.758;2023-01-29T00:13:13;37.30;;;11.53;;
75616;SDS011;64200;55.426;37.758;2023-01-29T00:18:14;30.37;;;10.13;;
75616;SDS011;64200;55.426;37.758;2023-01-29T00:23:14;38.70;;;12.53;;
75616;SDS011;64200;55.426;37.758;2023-01-29T00:28:15;33.95;;;11.35;;
75616;SDS011;64200;55.426;37.758;2023-01-29T00:33:15;33.27;;;11.53;;
75616;SDS011;64200;55.426;37.758;2023-01-29T00:38:16;23.70;;;7.23;;
75616;SDS011;64200;55.426;37.758;2023-01-29T00:43:17;34.67;;;10.93;;
75616;SDS011;64200;55.426;37.758;2023-01-29T00:48:36;29.40;;;9.23;;
75616;SDS011;64200;55.426;37.758;2023-01-29T00:53:37;41.05;;;12.65;;
75616;SDS011;64200;55.426;37.758;2023-01-29T00:58:37;34.23;;;12.17;;
75616;SDS011;64200;55.426;37.758;2023-01-29T01:03:38;30.63;;;11.20;;
75616;SDS011;64200;55.426;37.758;2023-01-29T01:08:41;36.22;;;11.27;;
75616;SDS011;64200;55.426;37.758;2023-01-29T01:14:00;35.30;;;11.88;;
75616;SDS011;64200;55.426;37.758;2023-01-29T01:19:01;37.13;;;12.88;;
75616;SDS011;64200;55.426;37.758;2023-01-29T01:24:03;37.05;;;12.13;;
75616;SDS011;64200;55.426;37.758;2023-01-29T01:29:04;29.85;;;9.80;;
75616;SDS011;64200;55.426;37.758;2023-01-29T01:34:05;34.45;;;11.82;;
75616;SDS011;64200;55.426;37.758;2023-01-29T01:39:06;30.13;;;10.48;;
75616;SDS011;64200;55.426;37.758;2023-01-29T01:44:06;34.53;;;10.80;;
75616;SDS011;64200;55.426;37.758;2023-01-29T01:49:11;31.70;;;10.02;;
75616;SDS011;64200;55.426;37.758;2023-01-29T01:54:19;26.27;;;8.40;;
75616;SDS011;64200;55.426;37.758;2023-01-29T01:59:26;20.05;;;7.07;;
75616;SDS011;64200;55.426;37.758;2023-01-29T02:04:26;27.50;;;9.87;;
75616;SDS011;64200;55.426;37.758;2023-01-29T02:09:49;32.33;;;9.82;;
75616;SDS011;64200;55.426;37.758;2023-01-29T02:14:52;25.33;;;9.30;;
75616;SDS011;64200;55.426;37.758;2023-01-29T02:20:08;22.58;;;8.23;;
75616;SDS011;64200;55.426;37.758;2023-01-29T02:30:40;32.45;;;11.18;;
75616;SDS011;64200;55.426;37.758;2023-01-29T02:51:30;30.70;;;10.07;;
75616;SDS011;64200;55.426;37.758;2023-01-29T02:56:37;22.27;;;9.18;;
75616;SDS011;64200;55.426;37.758;2023-01-29T03:01:50;20.00;;;8.32;;
75616;SDS011;64200;55.426;37.758;2023-01-29T03:06:59;29.55;;;10.77;;
75616;SDS011;64200;55.426;37.758;2023-01-29T03:12:20;17.17;;;7.75;;
75616;SDS011;64200;55.426;37.758;2023-01-29T03:17:35;24.10;;;9.30;;
75616;SDS011;64200;55.426;37.758;2023-01-29T03:22:40;22.88;;;9.05;;
75616;SDS011;64200;55.426;37.758;2023-01-29T03:27:46;18.85;;;7.95;;
75616;SDS011;64200;55.426;37.758;2023-01-29T03:33:11;16.75;;;7.50;;
75616;SDS011;64200;55.426;37.758;2023-01-29T03:38:17;11.30;;;5.05;;
75616;SDS011;64200;55.426;37.758;2023-01-29T03:48:34;9.82;;;4.07;;
75616;SDS011;64200;55.426;37.758;2023-01-29T03:53:55;7.32;;;3.78;;
75616;SDS011;64200;55.426;37.758;2023-01-29T03:59:07;6.90;;;3.40;;
75616;SDS011;64200;55.426;37.758;2023-01-29T04:04:14;7.82;;;3.75;;
75616;SDS011;64200;55.426;37.758;2023-01-29T04:14:31;8.30;;;4.22;;
75616;SDS011;64200;55.426;37.758;2023-01-29T04:19:32;9.52;;;4.75;;
75616;SDS011;64200;55.426;37.758;2023-01-29T04:24:34;5.32;;;3.00;;
75616;SDS011;64200;55.426;37.758;2023-01-29T04:29:49;8.02;;;3.88;;
75616;SDS011;64200;55.426;37.758;2023-01-29T04:35:19;9.57;;;4.30;;
75616;SDS011;64200;55.426;37.758;2023-01-29T04:56:47;8.55;;;4.53;;
75616;SDS011;64200;55.426;37.758;2023-01-29T05:01:54;7.82;;;3.95;;
75616;SDS011;64200;55.426;37.758;2023-01-29T05:06:55;9.77;;;4.63;;
75616;SDS011;64200;55.426;37.758;2023-01-29T05:11:55;8.93;;;3.97;;
75616;SDS011;64200;55.426;37.758;2023-01-29T05:16:56;12.32;;;6.03;;
75616;SDS011;64200;55.426;37.758;2023-01-29T05:22:01;10.45;;;4.45;;
75616;SDS011;64200;55.426;37.758;2023-01-29T05:27:05;10.05;;;4.55;;
75616;SDS011;64200;55.426;37.758;2023-01-29T05:32:27;10.63;;;5.15;;
75616;SDS011;64200;55.426;37.758;2023-01-29T05:37:27;9.73;;;4.47;;
75616;SDS011;64200;55.426;37.758;2023-01-29T05:42:28;7.90;;;3.78;;
75616;SDS011;64200;55.426;37.758;2023-01-29T05:47:28;4.50;;;2.93;;
75616;SDS011;64200;55.426;37.758;2023-01-29T05:52:29;6.22;;;2.85;;
75616;SDS011;64200;55.426;37.758;2023-01-29T05:57:29;7.60;;;4.03;;
75616;SDS011;64200;55.426;37.758;2023-01-29T06:02:30;11.83;;;4.30;;
75616;SDS011;64200;55.426;37.758;2023-01-29T06:07:31;17.10;;;6.70;;
75616;SDS011;64200;55.426;37.758;2023-01-29T06:12:31;22.77;;;9.25;;
75616;SDS011;64200;55.426;37.758;2023-01-29T06:17:32;16.57;;;5.07;;
75616;SDS011;64200;55.426;37.758;2023-01-29T06:22:32;14.37;;;5.77;;
75616;SDS011;64200;55.426;37.758;2023-01-29T06:27:33;6.97;;;3.05;;
75616;SDS011;64200;55.426;37.758;2023-01-29T06:32:33;17.73;;;6.30;;
75616;SDS011;64200;55.426;37.758;2023-01-29T06:37:34;23.93;;;7.97;;
75616;SDS011;64200;55.426;37.758;2023-01-29T06:42:36;21.92;;;9.15;;
75616;SDS011;64200;55.426;37.758;2023-01-29T06:47:37;8.63;;;4.30;;
75616;SDS011;64200;55.426;37.758;2023-01-29T06:52:38;21.33;;;9.47;;
75616;SDS011;64200;55.426;37.758;2023-01-29T06:57:40;13.77;;;6.05;;
75616;SDS011;64200;55.426;37.758;2023-01-29T07:02:41;19.80;;;7.40;;
75616;SDS011;64200;55.426;37.758;2023-01-29T07:07:41;18.10;;;6.37;;
75616;SDS011;64200;55.426;37.758;2023-01-29T07:12:42;6.67;;;3.43;;
75616;SDS011;64200;55.426;37.758;2023-01-29T07:17:42;22.53;;;8.40;;
75616;SDS011;64200;55.426;37.758;2023-01-29T07:22:43;20.37;;;8.90;;
75616;SDS011;64200;55.426;37.758;2023-01-29T07:27:43;23.67;;;8.77;;
75616;SDS011;64200;55.426;37.758;2023-01-29T07:32:44;19.50;;;8.70;;
75616;SDS011;64200;55.426;37.758;2023-01-29T07:37:47;17.67;;;7.20;;
75616;SDS011;64200;55.426;37.758;2023-01-29T07:42:49;20.30;;;7.80;;
75616;SDS011;64200;55.426;37.758;2023-01-29T07:47:53;21.73;;;9.53;;
75616;SDS011;64200;55.426;37.758;2023-01-29T07:52:54;20.65;;;8.68;;
75616;SDS011;64200;55.426;37.758;2023-01-29T07:57:58;14.35;;;6.47;;
75616;SDS011;64200;55.426;37.758;2023-01-29T08:03:02;19.88;;;9.05;;
75616;SDS011;64200;55.426;37.758;2023-01-29T08:08:03;26.20;;;9.60;;
75616;SDS011;64200;55.426;37.758;2023-01-29T08:13:05;22.02;;;8.85;;
75616;SDS011;64200;55.426;37.758;2023-01-29T08:18:06;22.63;;;7.97;;
75616;SDS011;64200;55.426;37.758;2023-01-29T08:23:09;25.13;;;9.53;;
75616;SDS011;64200;55.426;37.758;2023-01-29T08:28:14;19.17;;;8.70;;
75616;SDS011;64200;55.426;37.758;2023-01-29T08:33:14;18.17;;;6.00;;
75616;SDS011;64200;55.426;37.758;2023-01-29T08:38:15;13.13;;;5.53;;
75616;SDS011;64200;55.426;37.758;2023-01-29T08:43:16;20.05;;;9.05;;
75616;SDS011;64200;55.426;37.758;2023-01-29T08:48:16;23.77;;;9.20;;
75616;SDS011;64200;55.426;37.758;2023-01-29T08:53:17;14.10;;;5.50;;
75616;SDS011;64200;55.426;37.758;2023-01-29T08:58:23;7.60;;;2.92;;
75616;SDS011;64200;55.426;37.758;2023-01-29T09:03:24;13.77;;;5.57;;
75616;SDS011;64200;55.426;37.758;2023-01-29T09:08:24;9.47;;;3.77;;
75616;SDS011;64200;55.426;37.758;2023-01-29T09:13:25;17.73;;;7.07;;
75616;SDS011;64200;55.426;37.758;2023-01-29T09:18:26;12.82;;;5.22;;
75616;SDS011;64200;55.426;37.758;2023-01-29T09:23:27;16.35;;;6.10;;
75616;SDS011;64200;55.426;37.758;2023-01-29T09:28:29;15.13;;;6.38;;
75616;SDS011;64200;55.426;37.758;2023-01-29T09:33:29;8.50;;;3.40;;
75616;SDS011;64200;55.426;37.758;2023-01-29T09:38:30;11.98;;;4.70;;
75616;SDS011;64200;55.426;37.758;2023-01-29T09:43:35;5.47;;;3.20;;
75616;SDS011;64200;55.426;37.758;2023-01-29T09:48:38;13.27;;;5.50;;
75616;SDS011;64200;55.426;37.758;2023-01-29T09:53:40;17.65;;;6.28;;
75616;SDS011;64200;55.426;37.758;2023-01-29T09:58:48;7.35;;;3.42;;
75616;SDS011;64200;55.426;37.758;2023-01-29T10:14:39;10.68;;;4.80;;
75616;SDS011;64200;55.426;37.758;2023-01-29T10:25:19;13.65;;;5.40;;
75616;SDS011;64200;55.426;37.758;2023-01-29T10:30:34;11.57;;;5.72;;
75616;SDS011;64200;55.426;37.758;2023-01-29T10:35:40;14.18;;;5.63;;
75616;SDS011;64200;55.426;37.758;2023-01-29T10:40:45;12.63;;;5.47;;
75616;SDS011;64200;55.426;37.758;2023-01-29T10:51:29;8.70;;;4.22;;
75616;SDS011;64200;55.426;37.758;2023-01-29T11:01:39;7.50;;;3.20;;
75616;SDS011;64200;55.426;37.758;2023-01-29T11:06:40;5.30;;;3.00;;
75616;SDS011;64200;55.426;37.758;2023-01-29T11:12:00;8.32;;;3.33;;
75616;SDS011;64200;55.426;37.758;2023-01-29T11:17:04;10.85;;;3.80;;
75616;SDS011;64200;55.426;37.758;2023-01-29T11:22:10;4.33;;;2.17;;
75616;SDS011;64200;55.426;37.758;2023-01-29T11:27:22;4.43;;;2.22;;
75616;SDS011;64200;55.426;37.758;2023-01-29T11:32:29;4.68;;;2.65;;
75616;SDS011;64200;55.426;37.758;2023-01-29T11:37:37;3.70;;;1.90;;
75616;SDS011;64200;55.426;37.758;2023-01-29T11:42:39;2.35;;;1.38;;
75616;SDS011;64200;55.426;37.758;2023-01-29T11:47:39;4.13;;;2.53;;
75616;SDS011;64200;55.426;37.758;2023-01-29T11:52:40;5.40;;;2.42;;
75616;SDS011;64200;55.426;37.758;2023-01-29T11:57:44;5.30;;;1.95;;
75616;SDS011;64200;55.426;37.758;2023-01-29T12:02:55;2.72;;;1.58;;
75616;SDS011;64200;55.426;37.758;2023-01-29T12:07:56;3.05;;;1.45;;
75616;SDS011;64200;55.426;37.758;2023-01-29T12:13:08;5.22;;;2.33;;
75616;SDS011;64200;55.426;37.758;2023-01-29T12:39:28;4.38;;;2.38;;
75616;SDS011;64200;55.426;37.758;2023-01-29T12:49:45;4.20;;;1.73;;
75616;SDS011;64200;55.426;37.758;2023-01-29T12:54:58;8.43;;;3.28;;
75616;SDS011;64200;55.426;37.758;2023-01-29T13:00:04;5.68;;;2.63;;
75616;SDS011;64200;55.426;37.758;2023-01-29T13:10:17;5.68;;;2.78;;
75616;SDS011;64200;55.426;37.758;2023-01-29T13:15:30;7.93;;;3.75;;
75616;SDS011;64200;55.426;37.758;2023-01-29T13:20:35;5.13;;;2.92;;
75616;SDS011;64200;55.426;37.758;2023-01-29T13:25:37;8.63;;;3.10;;
75616;SDS011;64200;55.426;37.758;2023-01-29T13:30:40;6.47;;;2.60;;
75616;SDS011;64200;55.426;37.758;2023-01-29T13:35:41;7.85;;;4.47;;
75616;SDS011;64200;55.426;37.758;2023-01-29T13:40:47;9.20;;;2.85;;
75616;SDS011;64200;55.426;37.758;2023-01-29T13:45:50;6.97;;;3.45;;
75616;SDS011;64200;55.426;37.758;2023-01-29T13:50:53;4.88;;;2.05;;
75616;SDS011;64200;55.426;37.758;2023-01-29T13:56:27;9.20;;;3.50;;
75616;SDS011;64200;55.426;37.758;2023-01-29T14:06:48;10.25;;;3.92;;
75616;SDS011;64200;55.426;37.758;2023-01-29T14:11:50;8.02;;;3.85;;
75616;SDS011;64200;55.426;37.758;2023-01-29T14:16:51;3.95;;;1.65;;
75616;SDS011;64200;55.426;37.758;2023-01-29T14:22:02;8.48;;;3.85;;
75616;SDS011;64200;55.426;37.758;2023-01-29T14:27:04;12.20;;;4.15;;
75616;SDS011;64200;55.426;37.758;2023-01-29T14:52:42;6.30;;;3.05;;
75616;SDS011;64200;55.426;37.758;2023-01-29T14:57:43;4.25;;;2.20;;
75616;SDS011;64200;55.426;37.758;2023-01-29T15:02:44;9.93;;;4.53;;
75616;SDS011;64200;55.426;37.758;2023-01-29T15:18:33;7.97;;;3.88;;
75616;SDS011;64200;55.426;37.758;2023-01-29T15:23:36;8.20;;;3.50;;
75616;SDS011;64200;55.426;37.758;2023-01-29T15:28:37;8.35;;;3.25;;
75616;SDS011;64200;55.426;37.758;2023-01-29T15:33:40;8.88;;;4.20;;
75616;SDS011;64200;55.426;37.758;2023-01-29T15:38:43;4.55;;;2.53;;
75616;SDS011;64200;55.426;37.758;2023-01-29T15:43:45;8.40;;;3.50;;
75616;SDS011;64200;55.426;37.758;2023-01-29T15:48:47;3.75;;;2.13;;
75616;SDS011;64200;55.426;37.758;2023-01-29T15:53:50;11.27;;;4.80;;
75616;SDS011;64200;55.426;37.758;2023-01-29T15:58:52;9.23;;;3.95;;
75616;SDS011;64200;55.426;37.758;2023-01-29T16:03:55;7.72;;;2.95;;
75616;SDS011;64200;55.426;37.758;2023-01-29T16:09:00;6.00;;;2.50;;
75616;SDS011;64200;55.426;37.758;2023-01-29T16:14:00;5.95;;;2.80;;
75616;SDS011;64200;55.426;37.758;2023-01-29T16:19:11;8.73;;;3.38;;
75616;SDS011;64200;55.426;37.758;2023-01-29T16:24:26;7.20;;;3.50;;
75616;SDS011;64200;55.426;37.758;2023-01-29T16:29:31;5.22;;;2.25;;
75616;SDS011;64200;55.426;37.758;2023-01-29T16:34:34;12.68;;;4.35;;
75616;SDS011;64200;55.426;37.758;2023-01-29T16:39:38;5.53;;;3.22;;
75616;SDS011;64200;55.426;37.758;2023-01-29T16:55:21;12.95;;;4.68;;
75616;SDS011;64200;55.426;37.758;2023-01-29T17:00:26;6.53;;;2.83;;
75616;SDS011;64200;55.426;37.758;2023-01-29T17:05:29;11.70;;;5.68;;
75616;SDS011;64200;55.426;37.758;2023-01-29T17:10:32;11.70;;;5.65;;
75616;SDS011;64200;55.426;37.758;2023-01-29T17:15:43;6.18;;;2.63;;
75616;SDS011;64200;55.426;37.758;2023-01-29T17:20:46;8.82;;;3.78;;
75616;SDS011;64200;55.426;37.758;2023-01-29T17:25:47;6.38;;;2.83;;
75616;SDS011;64200;55.426;37.758;2023-01-29T17:30:48;7.35;;;2.80;;
75616;SDS011;64200;55.426;37.758;2023-01-29T17:35:48;7.13;;;3.23;;
75616;SDS011;64200;55.426;37.758;2023-01-29T17:41:12;12.57;;;4.38;;
75616;SDS011;64200;55.426;37.758;2023-01-29T17:46:17;13.80;;;5.50;;
75616;SDS011;64200;55.426;37.758;2023-01-29T17:51:18;8.95;;;3.67;;
75616;SDS011;64200;55.426;37.758;2023-01-29T17:56:23;9.55;;;3.00;;
75616;SDS011;64200;55.426;37.758;2023-01-29T18:01:28;5.53;;;3.28;;
75616;SDS011;64200;55.426;37.758;2023-01-29T18:06:29;9.10;;;4.03;;
75616;SDS011;64200;55.426;37.758;2023-01-29T18:11:29;7.13;;;3.37;;
75616;SDS011;64200;55.426;37.758;2023-01-29T18:16:30;7.83;;;3.70;;
75616;SDS011;64200;55.426;37.758;2023-01-29T18:21:36;11.13;;;4.82;;
75616;SDS011;64200;55.426;37.758;2023-01-29T18:26:36;9.93;;;4.20;;
75616;SDS011;64200;55.426;37.758;2023-01-29T18:31:37;10.43;;;4.73;;
75616;SDS011;64200;55.426;37.758;2023-01-29T18:36:37;6.07;;;2.67;;
75616;SDS011;64200;55.426;37.758;2023-01-29T18:41:55;6.77;;;2.83;;
75616;SDS011;64200;55.426;37.758;2023-01-29T18:46:56;9.90;;;4.47;;
75616;SDS011;64200;55.426;37.758;2023-01-29T18:51:56;5.97;;;2.47;;
75616;SDS011;64200;55.426;37.758;2023-01-29T18:56:57;12.30;;;5.07;;
75616;SDS011;64200;55.426;37.758;2023-01-29T19:01:57;8.23;;;3.83;;
75616;SDS011;64200;55.426;37.758;2023-01-29T19:06:57;5.87;;;2.47;;
75616;SDS011;64200;55.426;37.758;2023-01-29T19:11:58;7.80;;;3.97;;
75616;SDS011;64200;55.426;37.758;2023-01-29T19:16:58;12.70;;;5.27;;
75616;SDS011;64200;55.426;37.758;2023-01-29T19:22:00;7.07;;;2.30;;
75616;SDS011;64200;55.426;37.758;2023-01-29T19:27:01;6.63;;;4.07;;
75616;SDS011;64200;55.426;37.758;2023-01-29T19:32:01;5.80;;;3.00;;
75616;SDS011;64200;55.426;37.758;2023-01-29T19:37:02;10.00;;;4.28;;
75616;SDS011;64200;55.426;37.758;2023-01-29T19:42:03;9.73;;;3.30;;
75616;SDS011;64200;55.426;37.758;2023-01-29T19:47:03;11.80;;;4.93;;
75616;SDS011;64200;55.426;37.758;2023-01-29T19:52:04;13.93;;;5.22;;
75616;SDS011;64200;55.426;37.758;2023-01-29T19:57:06;8.43;;;3.72;;
75616;SDS011;64200;55.426;37.758;2023-01-29T20:02:07;13.70;;;5.47;;
75616;SDS011;64200;55.426;37.758;2023-01-29T20:07:08;12.15;;;4.72;;
75616;SDS011;64200;55.426;37.758;2023-01-29T20:12:08;8.97;;;4.17;;
75616;SDS011;64200;55.426;37.758;2023-01-29T20:17:09;8.17;;;3.47;;
75616;SDS011;64200;55.426;37.758;2023-01-29T20:22:10;5.47;;;2.77;;
75616;SDS011;64200;55.426;37.758;2023-01-29T20:27:11;8.35;;;4.10;;
75616;SDS011;64200;55.426;37.758;2023-01-29T20:32:12;4.43;;;2.47;;
75616;SDS011;64200;55.426;37.758;2023-01-29T20:37:13;9.82;;;3.95;;
75616;SDS011;64200;55.426;37.758;2023-01-29T20:42:14;5.57;;;2.83;;
75616;SDS011;64200;55.426;37.758;2023-01-29T20:47:15;14.23;;;4.60;;
75616;SDS011;64200;55.426;37.758;2023-01-29T20:52:15;5.43;;;2.27;;
75616;SDS011;64200;55.426;37.758;2023-01-29T20:57:16;7.70;;;3.87;;
75616;SDS011;64200;55.426;37.758;2023-01-29T21:02:16;6.60;;;3.67;;
75616;SDS011;64200;55.426;37.758;2023-01-29T21:07:16;7.97;;;2.73;;
75616;SDS011;64200;55.426;37.758;2023-01-29T21:12:17;11.82;;;4.53;;
75616;SDS011;64200;55.426;37.758;2023-01-29T21:17:17;9.93;;;4.67;;
75616;SDS011;64200;55.426;37.758;2023-01-29T21:22:18;4.63;;;2.03;;
75616;SDS011;64200;55.426;37.758;2023-01-29T21:27:19;11.73;;;5.20;;
75616;SDS011;64200;55.426;37.758;2023-01-29T21:32:19;3.95;;;2.35;;
75616;SDS011;64200;55.426;37.758;2023-01-29T21:37:20;13.52;;;5.35;;
75616;SDS011;64200;55.426;37.758;2023-01-29T21:42:21;10.33;;;4.97;;
75616;SDS011;64200;55.426;37.758;2023-01-29T21:47:40;8.98;;;4.38;;
75616;SDS011;64200;55.426;37.758;2023-01-29T21:52:41;10.73;;;4.37;;
75616;SDS011;64200;55.426;37.758;2023-01-29T21:57:41;12.00;;;4.63;;
75616;SDS011;64200;55.426;37.758;2023-01-29T22:02:42;12.05;;;4.40;;
75616;SDS011;64200;55.426;37.758;2023-01-29T22:07:43;12.55;;;4.68;;
75616;SDS011;64200;55.426;37.758;2023-01-29T22:12:43;6.45;;;2.90;;
75616;SDS011;64200;55.426;37.758;2023-01-29T22:17:44;8.93;;;3.53;;
75616;SDS011;64200;55.426;37.758;2023-01-29T22:22:44;8.53;;;4.20;;
75616;SDS011;64200;55.426;37.758;2023-01-29T22:27:45;9.48;;;4.40;;
75616;SDS011;64200;55.426;37.758;2023-01-29T22:32:45;8.60;;;3.40;;
75616;SDS011;64200;55.426;37.758;2023-01-29T22:37:46;11.63;;;5.20;;
75616;SDS011;64200;55.426;37.758;2023-01-29T22:42:47;9.75;;;5.05;;
75616;SDS011;64200;55.426;37.758;2023-01-29T22:47:47;10.77;;;3.90;;
75616;SDS011;64200;55.426;37.758;2023-01-29T22:52:48;12.73;;;4.27;;
75616;SDS011;64200;55.426;37.758;2023-01-29T22:57:52;11.18;;;4.05;;
75616;SDS011;64200;55.426;37.758;2023-01-29T23:02:53;8.37;;;3.40;;
75616;SDS011;64200;55.426;37.758;2023-01-29T23:07:53;6.77;;;3.00;;
75616;SDS011;64200;55.426;37.758;2023-01-29T23:12:54;15.20;;;4.83;;
75616;SDS011;64200;55.426;37.758;2023-01-29T23:17:54;10.37;;;4.63;;
75616;SDS011;64200;55.426;37.758;2023-01-29T23:22:55;14.47;;;4.53;;
75616;SDS011;64200;55.426;37.758;2023-01-29T23:27:55;14.10;;;4.70;;
75616;SDS011;64200;55.426;37.758;2023-01-29T23:32:56;12.40;;;4.60;;
75616;SDS011;64200;55.426;37.758;2023-01-29T23:37:56;16.30;;;5.70;;
75616;SDS011;64200;55.426;37.758;2023-01-29T23:42:57;10.23;;;5.27;;
75616;SDS011;64200;55.426;37.758;2023-01-29T23:47:57;13.70;;;3.67;;
75616;SDS011;64200;55.426;37.758;2023-01-29T23:52:57;14.67;;;5.70;;
75616;SDS011;64200;55.426;37.758;2023-01-29T23:57:58;10.10;;;3.97;;
